<?xml version="1.0" encoding="UTF-8" standalone="no" ?>
<gpx xmlns="http://www.topografix.com/GPX/1/1" xmlns:xsi="http://www.w3.org/2001/XMLSchema-instance" xsi:schemaLocation="http://www.topografix.com/GPX/1/1 http://www.topografix.com/GPX/1/1/gpx.xsd" version="1.1" creator="VisuGPX - https://www.visugpx.com">
  <metadata>
    <name>Aosta jour 1</name>
    <desc><![CDATA[Tour prevu à Aoste, ca va piquer les gambettes]]></desc>
  </metadata>
  <trk>
    <name><![CDATA[20171027222443-xvM4r]]></name>
    <trkseg>
      <trkpt lat="45.76468" lon="7.34298">
        <ele>1182</ele>
        <time>2017-06-10T12:18:06Z</time>
      </trkpt>
      <trkpt lat="45.76465" lon="7.34295">
        <ele>1181</ele>
        <time>2017-06-10T12:18:08Z</time>
      </trkpt>
      <trkpt lat="45.76458" lon="7.34289">
        <ele>1180</ele>
        <time>2017-06-10T12:18:10Z</time>
      </trkpt>
      <trkpt lat="45.76455" lon="7.34289">
        <ele>1179</ele>
        <time>2017-06-10T12:18:11Z</time>
      </trkpt>
      <trkpt lat="45.76451" lon="7.3429">
        <ele>1179</ele>
        <time>2017-06-10T12:18:12Z</time>
      </trkpt>
      <trkpt lat="45.76448" lon="7.3429">
        <ele>1178</ele>
        <time>2017-06-10T12:18:13Z</time>
      </trkpt>
      <trkpt lat="45.76445" lon="7.3429">
        <ele>1178</ele>
        <time>2017-06-10T12:18:14Z</time>
      </trkpt>
      <trkpt lat="45.76442" lon="7.3429">
        <ele>1177</ele>
        <time>2017-06-10T12:18:15Z</time>
      </trkpt>
      <trkpt lat="45.76439" lon="7.34288">
        <ele>1177</ele>
        <time>2017-06-10T12:18:16Z</time>
      </trkpt>
      <trkpt lat="45.76435" lon="7.34286">
        <ele>1176</ele>
        <time>2017-06-10T12:18:17Z</time>
      </trkpt>
      <trkpt lat="45.76432" lon="7.34285">
        <ele>1176</ele>
        <time>2017-06-10T12:18:18Z</time>
      </trkpt>
      <trkpt lat="45.76428" lon="7.34283">
        <ele>1175</ele>
        <time>2017-06-10T12:18:19Z</time>
      </trkpt>
      <trkpt lat="45.76423" lon="7.3428">
        <ele>1174</ele>
        <time>2017-06-10T12:18:20Z</time>
      </trkpt>
      <trkpt lat="45.7642" lon="7.34278">
        <ele>1174</ele>
        <time>2017-06-10T12:18:21Z</time>
      </trkpt>
      <trkpt lat="45.76418" lon="7.34278">
        <ele>1173</ele>
        <time>2017-06-10T12:18:22Z</time>
      </trkpt>
      <trkpt lat="45.76417" lon="7.34277">
        <ele>1160</ele>
        <time>2017-06-10T12:18:23Z</time>
      </trkpt>
      <trkpt lat="45.76416" lon="7.34277">
        <ele>1160</ele>
        <time>2017-06-10T12:18:24Z</time>
      </trkpt>
      <trkpt lat="45.76414" lon="7.34277">
        <ele>1160</ele>
        <time>2017-06-10T12:18:25Z</time>
      </trkpt>
      <trkpt lat="45.76413" lon="7.34275">
        <ele>1160</ele>
        <time>2017-06-10T12:18:26Z</time>
      </trkpt>
      <trkpt lat="45.76411" lon="7.34274">
        <ele>1160</ele>
        <time>2017-06-10T12:18:27Z</time>
      </trkpt>
      <trkpt lat="45.76408" lon="7.3427">
        <ele>1159</ele>
        <time>2017-06-10T12:18:29Z</time>
      </trkpt>
      <trkpt lat="45.76406" lon="7.34269">
        <ele>1159</ele>
        <time>2017-06-10T12:18:30Z</time>
      </trkpt>
      <trkpt lat="45.76404" lon="7.34269">
        <ele>1159</ele>
        <time>2017-06-10T12:18:31Z</time>
      </trkpt>
      <trkpt lat="45.76401" lon="7.3427">
        <ele>1159</ele>
        <time>2017-06-10T12:18:32Z</time>
      </trkpt>
      <trkpt lat="45.76397" lon="7.34275">
        <ele>1158</ele>
        <time>2017-06-10T12:18:34Z</time>
      </trkpt>
      <trkpt lat="45.76392" lon="7.34282">
        <ele>1158</ele>
        <time>2017-06-10T12:18:36Z</time>
      </trkpt>
      <trkpt lat="45.76388" lon="7.34284">
        <ele>1157</ele>
        <time>2017-06-10T12:18:38Z</time>
      </trkpt>
      <trkpt lat="45.76384" lon="7.34282">
        <ele>1157</ele>
        <time>2017-06-10T12:18:40Z</time>
      </trkpt>
      <trkpt lat="45.7638" lon="7.34279">
        <ele>1156</ele>
        <time>2017-06-10T12:18:42Z</time>
      </trkpt>
      <trkpt lat="45.76379" lon="7.3427">
        <ele>1156</ele>
        <time>2017-06-10T12:18:44Z</time>
      </trkpt>
      <trkpt lat="45.76381" lon="7.3426">
        <ele>1156</ele>
        <time>2017-06-10T12:18:46Z</time>
      </trkpt>
      <trkpt lat="45.76383" lon="7.34255">
        <ele>1156</ele>
        <time>2017-06-10T12:18:47Z</time>
      </trkpt>
      <trkpt lat="45.76385" lon="7.34248">
        <ele>1151</ele>
        <time>2017-06-10T12:18:48Z</time>
      </trkpt>
      <trkpt lat="45.76389" lon="7.34234">
        <ele>1151</ele>
        <time>2017-06-10T12:18:51Z</time>
      </trkpt>
      <trkpt lat="45.76392" lon="7.34211">
        <ele>1150</ele>
        <time>2017-06-10T12:18:56Z</time>
      </trkpt>
      <trkpt lat="45.76396" lon="7.34184">
        <ele>1149</ele>
        <time>2017-06-10T12:18:59Z</time>
      </trkpt>
      <trkpt lat="45.76396" lon="7.34178">
        <ele>1149</ele>
        <time>2017-06-10T12:19:00Z</time>
      </trkpt>
      <trkpt lat="45.76396" lon="7.34173">
        <ele>1149</ele>
        <time>2017-06-10T12:19:01Z</time>
      </trkpt>
      <trkpt lat="45.76394" lon="7.34161">
        <ele>1145</ele>
        <time>2017-06-10T12:19:03Z</time>
      </trkpt>
      <trkpt lat="45.76389" lon="7.34106">
        <ele>1141</ele>
        <time>2017-06-10T12:19:11Z</time>
      </trkpt>
      <trkpt lat="45.76388" lon="7.34079">
        <ele>1138</ele>
        <time>2017-06-10T12:19:15Z</time>
      </trkpt>
      <trkpt lat="45.76387" lon="7.34074">
        <ele>1138</ele>
        <time>2017-06-10T12:19:16Z</time>
      </trkpt>
      <trkpt lat="45.76387" lon="7.34067">
        <ele>1138</ele>
        <time>2017-06-10T12:19:17Z</time>
      </trkpt>
      <trkpt lat="45.76385" lon="7.34061">
        <ele>1138</ele>
        <time>2017-06-10T12:19:18Z</time>
      </trkpt>
      <trkpt lat="45.76384" lon="7.34056">
        <ele>1137</ele>
        <time>2017-06-10T12:19:19Z</time>
      </trkpt>
      <trkpt lat="45.76379" lon="7.34045">
        <ele>1137</ele>
        <time>2017-06-10T12:19:22Z</time>
      </trkpt>
      <trkpt lat="45.76371" lon="7.34018">
        <ele>1136</ele>
        <time>2017-06-10T12:19:34Z</time>
      </trkpt>
      <trkpt lat="45.76364" lon="7.3401">
        <ele>1135</ele>
        <time>2017-06-10T12:20:17Z</time>
      </trkpt>
      <trkpt lat="45.76346" lon="7.34011">
        <ele>1134</ele>
        <time>2017-06-10T12:20:21Z</time>
      </trkpt>
      <trkpt lat="45.76341" lon="7.3401">
        <ele>1133</ele>
        <time>2017-06-10T12:20:23Z</time>
      </trkpt>
      <trkpt lat="45.7634" lon="7.34007">
        <ele>1133</ele>
        <time>2017-06-10T12:20:25Z</time>
      </trkpt>
      <trkpt lat="45.76333" lon="7.34003">
        <ele>1130</ele>
        <time>2017-06-10T12:20:28Z</time>
      </trkpt>
      <trkpt lat="45.76327" lon="7.34001">
        <ele>1128</ele>
        <time>2017-06-10T12:20:30Z</time>
      </trkpt>
      <trkpt lat="45.76324" lon="7.34">
        <ele>1124</ele>
        <time>2017-06-10T12:20:31Z</time>
      </trkpt>
      <trkpt lat="45.7632" lon="7.33999">
        <ele>1122</ele>
        <time>2017-06-10T12:20:32Z</time>
      </trkpt>
      <trkpt lat="45.76317" lon="7.33997">
        <ele>1121</ele>
        <time>2017-06-10T12:20:33Z</time>
      </trkpt>
      <trkpt lat="45.76314" lon="7.33996">
        <ele>1119</ele>
        <time>2017-06-10T12:20:34Z</time>
      </trkpt>
      <trkpt lat="45.76311" lon="7.33997">
        <ele>1118</ele>
        <time>2017-06-10T12:20:35Z</time>
      </trkpt>
      <trkpt lat="45.76306" lon="7.34">
        <ele>1116</ele>
        <time>2017-06-10T12:20:36Z</time>
      </trkpt>
      <trkpt lat="45.76303" lon="7.34002">
        <ele>1121</ele>
        <time>2017-06-10T12:20:37Z</time>
      </trkpt>
      <trkpt lat="45.763" lon="7.34006">
        <ele>1120</ele>
        <time>2017-06-10T12:20:38Z</time>
      </trkpt>
      <trkpt lat="45.76298" lon="7.34011">
        <ele>1119</ele>
        <time>2017-06-10T12:20:39Z</time>
      </trkpt>
      <trkpt lat="45.76296" lon="7.34014">
        <ele>1119</ele>
        <time>2017-06-10T12:20:40Z</time>
      </trkpt>
      <trkpt lat="45.76295" lon="7.34016">
        <ele>1119</ele>
        <time>2017-06-10T12:20:41Z</time>
      </trkpt>
      <trkpt lat="45.76294" lon="7.34016">
        <ele>1119</ele>
        <time>2017-06-10T12:20:43Z</time>
      </trkpt>
      <trkpt lat="45.76294" lon="7.34015">
        <ele>1119</ele>
        <time>2017-06-10T12:20:45Z</time>
      </trkpt>
      <trkpt lat="45.76293" lon="7.34014">
        <ele>1118</ele>
        <time>2017-06-10T12:20:46Z</time>
      </trkpt>
      <trkpt lat="45.76289" lon="7.3401">
        <ele>1117</ele>
        <time>2017-06-10T12:20:48Z</time>
      </trkpt>
      <trkpt lat="45.76285" lon="7.34003">
        <ele>1116</ele>
        <time>2017-06-10T12:20:50Z</time>
      </trkpt>
      <trkpt lat="45.76283" lon="7.33994">
        <ele>1110</ele>
        <time>2017-06-10T12:20:52Z</time>
      </trkpt>
      <trkpt lat="45.76281" lon="7.33988">
        <ele>1109</ele>
        <time>2017-06-10T12:20:53Z</time>
      </trkpt>
      <trkpt lat="45.7628" lon="7.3398">
        <ele>1109</ele>
        <time>2017-06-10T12:20:54Z</time>
      </trkpt>
      <trkpt lat="45.76278" lon="7.33967">
        <ele>1108</ele>
        <time>2017-06-10T12:20:56Z</time>
      </trkpt>
      <trkpt lat="45.76273" lon="7.33959">
        <ele>1106</ele>
        <time>2017-06-10T12:20:58Z</time>
      </trkpt>
      <trkpt lat="45.76271" lon="7.3396">
        <ele>1106</ele>
        <time>2017-06-10T12:20:59Z</time>
      </trkpt>
      <trkpt lat="45.76268" lon="7.33961">
        <ele>1106</ele>
        <time>2017-06-10T12:21:00Z</time>
      </trkpt>
      <trkpt lat="45.7626" lon="7.33966">
        <ele>1105</ele>
        <time>2017-06-10T12:21:02Z</time>
      </trkpt>
      <trkpt lat="45.76256" lon="7.33974">
        <ele>1105</ele>
        <time>2017-06-10T12:21:04Z</time>
      </trkpt>
      <trkpt lat="45.76251" lon="7.33983">
        <ele>1105</ele>
        <time>2017-06-10T12:21:06Z</time>
      </trkpt>
      <trkpt lat="45.76248" lon="7.33994">
        <ele>1097</ele>
        <time>2017-06-10T12:21:08Z</time>
      </trkpt>
      <trkpt lat="45.76242" lon="7.33996">
        <ele>1096</ele>
        <time>2017-06-10T12:21:10Z</time>
      </trkpt>
      <trkpt lat="45.76239" lon="7.33993">
        <ele>1094</ele>
        <time>2017-06-10T12:21:12Z</time>
      </trkpt>
      <trkpt lat="45.76233" lon="7.3399">
        <ele>1091</ele>
        <time>2017-06-10T12:21:14Z</time>
      </trkpt>
      <trkpt lat="45.7623" lon="7.33992">
        <ele>1090</ele>
        <time>2017-06-10T12:21:15Z</time>
      </trkpt>
      <trkpt lat="45.76224" lon="7.34">
        <ele>1089</ele>
        <time>2017-06-10T12:21:17Z</time>
      </trkpt>
      <trkpt lat="45.7622" lon="7.34001">
        <ele>1092</ele>
        <time>2017-06-10T12:21:18Z</time>
      </trkpt>
      <trkpt lat="45.76217" lon="7.34002">
        <ele>1091</ele>
        <time>2017-06-10T12:21:19Z</time>
      </trkpt>
      <trkpt lat="45.76215" lon="7.33999">
        <ele>1086</ele>
        <time>2017-06-10T12:21:21Z</time>
      </trkpt>
      <trkpt lat="45.76213" lon="7.33989">
        <ele>1085</ele>
        <time>2017-06-10T12:21:23Z</time>
      </trkpt>
      <trkpt lat="45.76211" lon="7.33986">
        <ele>1084</ele>
        <time>2017-06-10T12:21:24Z</time>
      </trkpt>
      <trkpt lat="45.76208" lon="7.33985">
        <ele>1083</ele>
        <time>2017-06-10T12:21:25Z</time>
      </trkpt>
      <trkpt lat="45.76204" lon="7.33988">
        <ele>1083</ele>
        <time>2017-06-10T12:21:27Z</time>
      </trkpt>
      <trkpt lat="45.76202" lon="7.33994">
        <ele>1082</ele>
        <time>2017-06-10T12:21:29Z</time>
      </trkpt>
      <trkpt lat="45.76185" lon="7.33966">
        <ele>1079</ele>
        <time>2017-06-10T12:22:41Z</time>
      </trkpt>
      <trkpt lat="45.76181" lon="7.33974">
        <ele>1079</ele>
        <time>2017-06-10T12:22:44Z</time>
      </trkpt>
      <trkpt lat="45.76179" lon="7.33978">
        <ele>1078</ele>
        <time>2017-06-10T12:22:45Z</time>
      </trkpt>
      <trkpt lat="45.76176" lon="7.33984">
        <ele>1077</ele>
        <time>2017-06-10T12:22:47Z</time>
      </trkpt>
      <trkpt lat="45.76175" lon="7.33988">
        <ele>1077</ele>
        <time>2017-06-10T12:22:48Z</time>
      </trkpt>
      <trkpt lat="45.76171" lon="7.33995">
        <ele>1074</ele>
        <time>2017-06-10T12:22:50Z</time>
      </trkpt>
      <trkpt lat="45.76163" lon="7.34004">
        <ele>1071</ele>
        <time>2017-06-10T12:22:53Z</time>
      </trkpt>
      <trkpt lat="45.76159" lon="7.34004">
        <ele>1070</ele>
        <time>2017-06-10T12:22:55Z</time>
      </trkpt>
      <trkpt lat="45.76156" lon="7.34004">
        <ele>1070</ele>
        <time>2017-06-10T12:22:57Z</time>
      </trkpt>
      <trkpt lat="45.76153" lon="7.34005">
        <ele>1069</ele>
        <time>2017-06-10T12:23:00Z</time>
      </trkpt>
      <trkpt lat="45.76151" lon="7.34007">
        <ele>1069</ele>
        <time>2017-06-10T12:23:22Z</time>
      </trkpt>
      <trkpt lat="45.76143" lon="7.3401">
        <ele>1067</ele>
        <time>2017-06-10T12:24:46Z</time>
      </trkpt>
      <trkpt lat="45.76141" lon="7.34005">
        <ele>1067</ele>
        <time>2017-06-10T12:25:03Z</time>
      </trkpt>
      <trkpt lat="45.76138" lon="7.34002">
        <ele>1067</ele>
        <time>2017-06-10T12:25:05Z</time>
      </trkpt>
      <trkpt lat="45.76135" lon="7.33999">
        <ele>1062</ele>
        <time>2017-06-10T12:25:06Z</time>
      </trkpt>
      <trkpt lat="45.76132" lon="7.33995">
        <ele>1062</ele>
        <time>2017-06-10T12:25:07Z</time>
      </trkpt>
      <trkpt lat="45.76131" lon="7.33992">
        <ele>1061</ele>
        <time>2017-06-10T12:25:08Z</time>
      </trkpt>
      <trkpt lat="45.76129" lon="7.33988">
        <ele>1061</ele>
        <time>2017-06-10T12:25:09Z</time>
      </trkpt>
      <trkpt lat="45.76121" lon="7.33983">
        <ele>1059</ele>
        <time>2017-06-10T12:25:11Z</time>
      </trkpt>
      <trkpt lat="45.76111" lon="7.33976">
        <ele>1058</ele>
        <time>2017-06-10T12:25:13Z</time>
      </trkpt>
      <trkpt lat="45.76103" lon="7.33975">
        <ele>1057</ele>
        <time>2017-06-10T12:25:15Z</time>
      </trkpt>
      <trkpt lat="45.76099" lon="7.33974">
        <ele>1057</ele>
        <time>2017-06-10T12:25:16Z</time>
      </trkpt>
      <trkpt lat="45.76095" lon="7.33972">
        <ele>1056</ele>
        <time>2017-06-10T12:25:17Z</time>
      </trkpt>
      <trkpt lat="45.76092" lon="7.33969">
        <ele>1056</ele>
        <time>2017-06-10T12:25:18Z</time>
      </trkpt>
      <trkpt lat="45.76089" lon="7.33967">
        <ele>1056</ele>
        <time>2017-06-10T12:25:19Z</time>
      </trkpt>
      <trkpt lat="45.76083" lon="7.33967">
        <ele>1040</ele>
        <time>2017-06-10T12:25:21Z</time>
      </trkpt>
      <trkpt lat="45.76081" lon="7.33965">
        <ele>1039</ele>
        <time>2017-06-10T12:25:22Z</time>
      </trkpt>
      <trkpt lat="45.7608" lon="7.33959">
        <ele>1038</ele>
        <time>2017-06-10T12:25:24Z</time>
      </trkpt>
      <trkpt lat="45.7608" lon="7.33957">
        <ele>1038</ele>
        <time>2017-06-10T12:25:25Z</time>
      </trkpt>
      <trkpt lat="45.76078" lon="7.33956">
        <ele>1038</ele>
        <time>2017-06-10T12:25:26Z</time>
      </trkpt>
      <trkpt lat="45.76076" lon="7.33956">
        <ele>1038</ele>
        <time>2017-06-10T12:25:27Z</time>
      </trkpt>
      <trkpt lat="45.76073" lon="7.3395">
        <ele>1037</ele>
        <time>2017-06-10T12:25:28Z</time>
      </trkpt>
      <trkpt lat="45.76069" lon="7.33946">
        <ele>1036</ele>
        <time>2017-06-10T12:25:29Z</time>
      </trkpt>
      <trkpt lat="45.76065" lon="7.33947">
        <ele>1036</ele>
        <time>2017-06-10T12:25:30Z</time>
      </trkpt>
      <trkpt lat="45.76061" lon="7.33947">
        <ele>1035</ele>
        <time>2017-06-10T12:25:31Z</time>
      </trkpt>
      <trkpt lat="45.76057" lon="7.33947">
        <ele>1035</ele>
        <time>2017-06-10T12:25:32Z</time>
      </trkpt>
      <trkpt lat="45.76054" lon="7.33948">
        <ele>1034</ele>
        <time>2017-06-10T12:25:33Z</time>
      </trkpt>
      <trkpt lat="45.76051" lon="7.33951">
        <ele>1034</ele>
        <time>2017-06-10T12:25:34Z</time>
      </trkpt>
      <trkpt lat="45.76047" lon="7.33951">
        <ele>1033</ele>
        <time>2017-06-10T12:25:35Z</time>
      </trkpt>
      <trkpt lat="45.76045" lon="7.33949">
        <ele>1032</ele>
        <time>2017-06-10T12:25:36Z</time>
      </trkpt>
      <trkpt lat="45.7604" lon="7.33942">
        <ele>1031</ele>
        <time>2017-06-10T12:25:38Z</time>
      </trkpt>
      <trkpt lat="45.76036" lon="7.33941">
        <ele>1030</ele>
        <time>2017-06-10T12:25:39Z</time>
      </trkpt>
      <trkpt lat="45.76033" lon="7.33942">
        <ele>1029</ele>
        <time>2017-06-10T12:25:40Z</time>
      </trkpt>
      <trkpt lat="45.76031" lon="7.3394">
        <ele>1028</ele>
        <time>2017-06-10T12:25:41Z</time>
      </trkpt>
      <trkpt lat="45.76029" lon="7.33938">
        <ele>1028</ele>
        <time>2017-06-10T12:25:42Z</time>
      </trkpt>
      <trkpt lat="45.76028" lon="7.33936">
        <ele>1027</ele>
        <time>2017-06-10T12:25:43Z</time>
      </trkpt>
      <trkpt lat="45.76027" lon="7.33934">
        <ele>1026</ele>
        <time>2017-06-10T12:25:44Z</time>
      </trkpt>
      <trkpt lat="45.76023" lon="7.33927">
        <ele>1024</ele>
        <time>2017-06-10T12:25:46Z</time>
      </trkpt>
      <trkpt lat="45.7602" lon="7.33923">
        <ele>1022</ele>
        <time>2017-06-10T12:25:48Z</time>
      </trkpt>
      <trkpt lat="45.76019" lon="7.33922">
        <ele>1021</ele>
        <time>2017-06-10T12:25:51Z</time>
      </trkpt>
      <trkpt lat="45.76018" lon="7.33921">
        <ele>1021</ele>
        <time>2017-06-10T12:25:57Z</time>
      </trkpt>
      <trkpt lat="45.76013" lon="7.33917">
        <ele>1017</ele>
        <time>2017-06-10T12:26:02Z</time>
      </trkpt>
      <trkpt lat="45.76008" lon="7.33914">
        <ele>1011</ele>
        <time>2017-06-10T12:26:05Z</time>
      </trkpt>
      <trkpt lat="45.76006" lon="7.33912">
        <ele>1011</ele>
        <time>2017-06-10T12:26:06Z</time>
      </trkpt>
      <trkpt lat="45.76002" lon="7.3391">
        <ele>1010</ele>
        <time>2017-06-10T12:26:07Z</time>
      </trkpt>
      <trkpt lat="45.75998" lon="7.33908">
        <ele>1000</ele>
        <time>2017-06-10T12:26:08Z</time>
      </trkpt>
      <trkpt lat="45.75991" lon="7.339">
        <ele>995</ele>
        <time>2017-06-10T12:26:10Z</time>
      </trkpt>
      <trkpt lat="45.75988" lon="7.33895">
        <ele>993</ele>
        <time>2017-06-10T12:26:11Z</time>
      </trkpt>
      <trkpt lat="45.75985" lon="7.3389">
        <ele>991</ele>
        <time>2017-06-10T12:26:12Z</time>
      </trkpt>
      <trkpt lat="45.75982" lon="7.33887">
        <ele>990</ele>
        <time>2017-06-10T12:26:13Z</time>
      </trkpt>
      <trkpt lat="45.75978" lon="7.33884">
        <ele>989</ele>
        <time>2017-06-10T12:26:14Z</time>
      </trkpt>
      <trkpt lat="45.75975" lon="7.33882">
        <ele>988</ele>
        <time>2017-06-10T12:26:15Z</time>
      </trkpt>
      <trkpt lat="45.75972" lon="7.33878">
        <ele>987</ele>
        <time>2017-06-10T12:26:16Z</time>
      </trkpt>
      <trkpt lat="45.7597" lon="7.33872">
        <ele>986</ele>
        <time>2017-06-10T12:26:17Z</time>
      </trkpt>
      <trkpt lat="45.75969" lon="7.33867">
        <ele>986</ele>
        <time>2017-06-10T12:26:18Z</time>
      </trkpt>
      <trkpt lat="45.75969" lon="7.33863">
        <ele>986</ele>
        <time>2017-06-10T12:26:19Z</time>
      </trkpt>
      <trkpt lat="45.75968" lon="7.3386">
        <ele>985</ele>
        <time>2017-06-10T12:26:20Z</time>
      </trkpt>
      <trkpt lat="45.75967" lon="7.33858">
        <ele>985</ele>
        <time>2017-06-10T12:26:21Z</time>
      </trkpt>
      <trkpt lat="45.75966" lon="7.33858">
        <ele>985</ele>
        <time>2017-06-10T12:26:22Z</time>
      </trkpt>
      <trkpt lat="45.75965" lon="7.33856">
        <ele>985</ele>
        <time>2017-06-10T12:26:24Z</time>
      </trkpt>
      <trkpt lat="45.75966" lon="7.33856">
        <ele>985</ele>
        <time>2017-06-10T12:26:25Z</time>
      </trkpt>
      <trkpt lat="45.75963" lon="7.33834">
        <ele>984</ele>
        <time>2017-06-10T12:26:30Z</time>
      </trkpt>
      <trkpt lat="45.75961" lon="7.33825">
        <ele>979</ele>
        <time>2017-06-10T12:26:31Z</time>
      </trkpt>
      <trkpt lat="45.75959" lon="7.33817">
        <ele>978</ele>
        <time>2017-06-10T12:26:32Z</time>
      </trkpt>
      <trkpt lat="45.75957" lon="7.33811">
        <ele>977</ele>
        <time>2017-06-10T12:26:33Z</time>
      </trkpt>
      <trkpt lat="45.75955" lon="7.33808">
        <ele>976</ele>
        <time>2017-06-10T12:26:34Z</time>
      </trkpt>
      <trkpt lat="45.75953" lon="7.33807">
        <ele>976</ele>
        <time>2017-06-10T12:26:35Z</time>
      </trkpt>
      <trkpt lat="45.7595" lon="7.33807">
        <ele>975</ele>
        <time>2017-06-10T12:26:36Z</time>
      </trkpt>
      <trkpt lat="45.75944" lon="7.33801">
        <ele>974</ele>
        <time>2017-06-10T12:26:38Z</time>
      </trkpt>
      <trkpt lat="45.75937" lon="7.33799">
        <ele>972</ele>
        <time>2017-06-10T12:26:40Z</time>
      </trkpt>
      <trkpt lat="45.75932" lon="7.338">
        <ele>971</ele>
        <time>2017-06-10T12:26:41Z</time>
      </trkpt>
      <trkpt lat="45.75927" lon="7.33799">
        <ele>970</ele>
        <time>2017-06-10T12:26:42Z</time>
      </trkpt>
      <trkpt lat="45.75922" lon="7.33797">
        <ele>970</ele>
        <time>2017-06-10T12:26:43Z</time>
      </trkpt>
      <trkpt lat="45.75919" lon="7.3379">
        <ele>969</ele>
        <time>2017-06-10T12:26:44Z</time>
      </trkpt>
      <trkpt lat="45.75918" lon="7.33785">
        <ele>969</ele>
        <time>2017-06-10T12:26:45Z</time>
      </trkpt>
      <trkpt lat="45.75916" lon="7.3378">
        <ele>947</ele>
        <time>2017-06-10T12:26:46Z</time>
      </trkpt>
      <trkpt lat="45.75914" lon="7.33775">
        <ele>947</ele>
        <time>2017-06-10T12:26:47Z</time>
      </trkpt>
      <trkpt lat="45.75912" lon="7.33769">
        <ele>948</ele>
        <time>2017-06-10T12:26:48Z</time>
      </trkpt>
      <trkpt lat="45.75911" lon="7.33761">
        <ele>949</ele>
        <time>2017-06-10T12:26:49Z</time>
      </trkpt>
      <trkpt lat="45.75907" lon="7.33751">
        <ele>950</ele>
        <time>2017-06-10T12:26:50Z</time>
      </trkpt>
      <trkpt lat="45.75903" lon="7.33743">
        <ele>946</ele>
        <time>2017-06-10T12:26:51Z</time>
      </trkpt>
      <trkpt lat="45.759" lon="7.33733">
        <ele>943</ele>
        <time>2017-06-10T12:26:52Z</time>
      </trkpt>
      <trkpt lat="45.75896" lon="7.33721">
        <ele>940</ele>
        <time>2017-06-10T12:26:53Z</time>
      </trkpt>
      <trkpt lat="45.75894" lon="7.33715">
        <ele>939</ele>
        <time>2017-06-10T12:26:54Z</time>
      </trkpt>
      <trkpt lat="45.75889" lon="7.33707">
        <ele>937</ele>
        <time>2017-06-10T12:26:55Z</time>
      </trkpt>
      <trkpt lat="45.75885" lon="7.33699">
        <ele>936</ele>
        <time>2017-06-10T12:26:56Z</time>
      </trkpt>
      <trkpt lat="45.75881" lon="7.33693">
        <ele>936</ele>
        <time>2017-06-10T12:26:57Z</time>
      </trkpt>
      <trkpt lat="45.75876" lon="7.33687">
        <ele>934</ele>
        <time>2017-06-10T12:26:58Z</time>
      </trkpt>
      <trkpt lat="45.75872" lon="7.3368">
        <ele>933</ele>
        <time>2017-06-10T12:26:59Z</time>
      </trkpt>
      <trkpt lat="45.7587" lon="7.33674">
        <ele>932</ele>
        <time>2017-06-10T12:27:00Z</time>
      </trkpt>
      <trkpt lat="45.75866" lon="7.33663">
        <ele>927</ele>
        <time>2017-06-10T12:27:01Z</time>
      </trkpt>
      <trkpt lat="45.75864" lon="7.33657">
        <ele>927</ele>
        <time>2017-06-10T12:27:02Z</time>
      </trkpt>
      <trkpt lat="45.7586" lon="7.33649">
        <ele>926</ele>
        <time>2017-06-10T12:27:03Z</time>
      </trkpt>
      <trkpt lat="45.75858" lon="7.33643">
        <ele>926</ele>
        <time>2017-06-10T12:27:04Z</time>
      </trkpt>
      <trkpt lat="45.75855" lon="7.3364">
        <ele>925</ele>
        <time>2017-06-10T12:27:05Z</time>
      </trkpt>
      <trkpt lat="45.75849" lon="7.33632">
        <ele>925</ele>
        <time>2017-06-10T12:27:06Z</time>
      </trkpt>
      <trkpt lat="45.75844" lon="7.3363">
        <ele>924</ele>
        <time>2017-06-10T12:27:07Z</time>
      </trkpt>
      <trkpt lat="45.75841" lon="7.33632">
        <ele>924</ele>
        <time>2017-06-10T12:27:08Z</time>
      </trkpt>
      <trkpt lat="45.75836" lon="7.33634">
        <ele>923</ele>
        <time>2017-06-10T12:27:09Z</time>
      </trkpt>
      <trkpt lat="45.75832" lon="7.33635">
        <ele>907</ele>
        <time>2017-06-10T12:27:10Z</time>
      </trkpt>
      <trkpt lat="45.75826" lon="7.33636">
        <ele>907</ele>
        <time>2017-06-10T12:27:11Z</time>
      </trkpt>
      <trkpt lat="45.75819" lon="7.33636">
        <ele>907</ele>
        <time>2017-06-10T12:27:12Z</time>
      </trkpt>
      <trkpt lat="45.75814" lon="7.33636">
        <ele>906</ele>
        <time>2017-06-10T12:27:13Z</time>
      </trkpt>
      <trkpt lat="45.7581" lon="7.33637">
        <ele>905</ele>
        <time>2017-06-10T12:27:14Z</time>
      </trkpt>
      <trkpt lat="45.75807" lon="7.33637">
        <ele>905</ele>
        <time>2017-06-10T12:27:15Z</time>
      </trkpt>
      <trkpt lat="45.75805" lon="7.33633">
        <ele>905</ele>
        <time>2017-06-10T12:27:17Z</time>
      </trkpt>
      <trkpt lat="45.75797" lon="7.33627">
        <ele>903</ele>
        <time>2017-06-10T12:27:41Z</time>
      </trkpt>
      <trkpt lat="45.75794" lon="7.33626">
        <ele>903</ele>
        <time>2017-06-10T12:29:01Z</time>
      </trkpt>
      <trkpt lat="45.75787" lon="7.33629">
        <ele>902</ele>
        <time>2017-06-10T12:29:04Z</time>
      </trkpt>
      <trkpt lat="45.75783" lon="7.33631">
        <ele>902</ele>
        <time>2017-06-10T12:29:05Z</time>
      </trkpt>
      <trkpt lat="45.75779" lon="7.3363">
        <ele>901</ele>
        <time>2017-06-10T12:29:06Z</time>
      </trkpt>
      <trkpt lat="45.75773" lon="7.33629">
        <ele>900</ele>
        <time>2017-06-10T12:29:07Z</time>
      </trkpt>
      <trkpt lat="45.75769" lon="7.33629">
        <ele>900</ele>
        <time>2017-06-10T12:29:08Z</time>
      </trkpt>
      <trkpt lat="45.75764" lon="7.33627">
        <ele>900</ele>
        <time>2017-06-10T12:29:09Z</time>
      </trkpt>
      <trkpt lat="45.75751" lon="7.33611">
        <ele>899</ele>
        <time>2017-06-10T12:29:13Z</time>
      </trkpt>
      <trkpt lat="45.75741" lon="7.3361">
        <ele>885</ele>
        <time>2017-06-10T12:29:15Z</time>
      </trkpt>
      <trkpt lat="45.75739" lon="7.33616">
        <ele>884</ele>
        <time>2017-06-10T12:29:17Z</time>
      </trkpt>
      <trkpt lat="45.7574" lon="7.3362">
        <ele>884</ele>
        <time>2017-06-10T12:29:18Z</time>
      </trkpt>
      <trkpt lat="45.75742" lon="7.33624">
        <ele>884</ele>
        <time>2017-06-10T12:29:19Z</time>
      </trkpt>
      <trkpt lat="45.75746" lon="7.33637">
        <ele>884</ele>
        <time>2017-06-10T12:29:21Z</time>
      </trkpt>
      <trkpt lat="45.75746" lon="7.33658">
        <ele>887</ele>
        <time>2017-06-10T12:29:23Z</time>
      </trkpt>
      <trkpt lat="45.75748" lon="7.33681">
        <ele>884</ele>
        <time>2017-06-10T12:29:25Z</time>
      </trkpt>
      <trkpt lat="45.75748" lon="7.33692">
        <ele>882</ele>
        <time>2017-06-10T12:29:26Z</time>
      </trkpt>
      <trkpt lat="45.75749" lon="7.33702">
        <ele>881</ele>
        <time>2017-06-10T12:29:27Z</time>
      </trkpt>
      <trkpt lat="45.75748" lon="7.3371">
        <ele>880</ele>
        <time>2017-06-10T12:29:28Z</time>
      </trkpt>
      <trkpt lat="45.75742" lon="7.33725">
        <ele>880</ele>
        <time>2017-06-10T12:29:30Z</time>
      </trkpt>
      <trkpt lat="45.75733" lon="7.33737">
        <ele>880</ele>
        <time>2017-06-10T12:29:32Z</time>
      </trkpt>
      <trkpt lat="45.75728" lon="7.33736">
        <ele>879</ele>
        <time>2017-06-10T12:29:33Z</time>
      </trkpt>
      <trkpt lat="45.75726" lon="7.33735">
        <ele>879</ele>
        <time>2017-06-10T12:29:34Z</time>
      </trkpt>
      <trkpt lat="45.75724" lon="7.33734">
        <ele>878</ele>
        <time>2017-06-10T12:29:35Z</time>
      </trkpt>
      <trkpt lat="45.7572" lon="7.33736">
        <ele>877</ele>
        <time>2017-06-10T12:29:37Z</time>
      </trkpt>
      <trkpt lat="45.75712" lon="7.3374">
        <ele>876</ele>
        <time>2017-06-10T12:30:13Z</time>
      </trkpt>
      <trkpt lat="45.75711" lon="7.33739">
        <ele>876</ele>
        <time>2017-06-10T12:30:19Z</time>
      </trkpt>
      <trkpt lat="45.75704" lon="7.3374">
        <ele>874</ele>
        <time>2017-06-10T12:30:22Z</time>
      </trkpt>
      <trkpt lat="45.75693" lon="7.33746">
        <ele>871</ele>
        <time>2017-06-10T12:30:25Z</time>
      </trkpt>
      <trkpt lat="45.75687" lon="7.3375">
        <ele>870</ele>
        <time>2017-06-10T12:30:26Z</time>
      </trkpt>
      <trkpt lat="45.75681" lon="7.33756">
        <ele>867</ele>
        <time>2017-06-10T12:30:27Z</time>
      </trkpt>
      <trkpt lat="45.75675" lon="7.33763">
        <ele>867</ele>
        <time>2017-06-10T12:30:28Z</time>
      </trkpt>
      <trkpt lat="45.75668" lon="7.33769">
        <ele>867</ele>
        <time>2017-06-10T12:30:29Z</time>
      </trkpt>
      <trkpt lat="45.75661" lon="7.33775">
        <ele>852</ele>
        <time>2017-06-10T12:30:30Z</time>
      </trkpt>
      <trkpt lat="45.75655" lon="7.33782">
        <ele>851</ele>
        <time>2017-06-10T12:30:31Z</time>
      </trkpt>
      <trkpt lat="45.75648" lon="7.3379">
        <ele>850</ele>
        <time>2017-06-10T12:30:32Z</time>
      </trkpt>
      <trkpt lat="45.75642" lon="7.33799">
        <ele>849</ele>
        <time>2017-06-10T12:30:33Z</time>
      </trkpt>
      <trkpt lat="45.75636" lon="7.3381">
        <ele>848</ele>
        <time>2017-06-10T12:30:34Z</time>
      </trkpt>
      <trkpt lat="45.75633" lon="7.33822">
        <ele>848</ele>
        <time>2017-06-10T12:30:35Z</time>
      </trkpt>
      <trkpt lat="45.7563" lon="7.33836">
        <ele>847</ele>
        <time>2017-06-10T12:30:36Z</time>
      </trkpt>
      <trkpt lat="45.75628" lon="7.33849">
        <ele>846</ele>
        <time>2017-06-10T12:30:37Z</time>
      </trkpt>
      <trkpt lat="45.75625" lon="7.33863">
        <ele>845</ele>
        <time>2017-06-10T12:30:38Z</time>
      </trkpt>
      <trkpt lat="45.75619" lon="7.33886">
        <ele>844</ele>
        <time>2017-06-10T12:30:40Z</time>
      </trkpt>
      <trkpt lat="45.75613" lon="7.33895">
        <ele>842</ele>
        <time>2017-06-10T12:30:41Z</time>
      </trkpt>
      <trkpt lat="45.75606" lon="7.33904">
        <ele>840</ele>
        <time>2017-06-10T12:30:42Z</time>
      </trkpt>
      <trkpt lat="45.756" lon="7.33911">
        <ele>838</ele>
        <time>2017-06-10T12:30:43Z</time>
      </trkpt>
      <trkpt lat="45.75592" lon="7.33917">
        <ele>835</ele>
        <time>2017-06-10T12:30:44Z</time>
      </trkpt>
      <trkpt lat="45.75586" lon="7.33922">
        <ele>833</ele>
        <time>2017-06-10T12:30:45Z</time>
      </trkpt>
      <trkpt lat="45.75574" lon="7.33929">
        <ele>825</ele>
        <time>2017-06-10T12:30:47Z</time>
      </trkpt>
      <trkpt lat="45.75571" lon="7.3393">
        <ele>825</ele>
        <time>2017-06-10T12:30:48Z</time>
      </trkpt>
      <trkpt lat="45.75568" lon="7.33932">
        <ele>824</ele>
        <time>2017-06-10T12:30:49Z</time>
      </trkpt>
      <trkpt lat="45.75565" lon="7.33934">
        <ele>823</ele>
        <time>2017-06-10T12:30:50Z</time>
      </trkpt>
      <trkpt lat="45.75559" lon="7.33941">
        <ele>822</ele>
        <time>2017-06-10T12:30:52Z</time>
      </trkpt>
      <trkpt lat="45.75552" lon="7.3395">
        <ele>821</ele>
        <time>2017-06-10T12:30:54Z</time>
      </trkpt>
      <trkpt lat="45.75548" lon="7.33952">
        <ele>820</ele>
        <time>2017-06-10T12:30:55Z</time>
      </trkpt>
      <trkpt lat="45.75544" lon="7.33956">
        <ele>820</ele>
        <time>2017-06-10T12:30:56Z</time>
      </trkpt>
      <trkpt lat="45.75544" lon="7.33963">
        <ele>820</ele>
        <time>2017-06-10T12:30:57Z</time>
      </trkpt>
      <trkpt lat="45.75544" lon="7.3397">
        <ele>820</ele>
        <time>2017-06-10T12:30:58Z</time>
      </trkpt>
      <trkpt lat="45.75542" lon="7.33978">
        <ele>820</ele>
        <time>2017-06-10T12:30:59Z</time>
      </trkpt>
      <trkpt lat="45.75538" lon="7.33983">
        <ele>819</ele>
        <time>2017-06-10T12:31:00Z</time>
      </trkpt>
      <trkpt lat="45.75531" lon="7.33987">
        <ele>817</ele>
        <time>2017-06-10T12:31:01Z</time>
      </trkpt>
      <trkpt lat="45.75525" lon="7.3399">
        <ele>816</ele>
        <time>2017-06-10T12:31:02Z</time>
      </trkpt>
      <trkpt lat="45.75517" lon="7.33993">
        <ele>814</ele>
        <time>2017-06-10T12:31:03Z</time>
      </trkpt>
      <trkpt lat="45.75511" lon="7.33996">
        <ele>812</ele>
        <time>2017-06-10T12:31:04Z</time>
      </trkpt>
      <trkpt lat="45.75505" lon="7.34001">
        <ele>809</ele>
        <time>2017-06-10T12:31:05Z</time>
      </trkpt>
      <trkpt lat="45.75493" lon="7.34012">
        <ele>804</ele>
        <time>2017-06-10T12:31:07Z</time>
      </trkpt>
      <trkpt lat="45.75486" lon="7.34016">
        <ele>803</ele>
        <time>2017-06-10T12:31:08Z</time>
      </trkpt>
      <trkpt lat="45.75478" lon="7.3402">
        <ele>802</ele>
        <time>2017-06-10T12:31:09Z</time>
      </trkpt>
      <trkpt lat="45.75471" lon="7.34023">
        <ele>801</ele>
        <time>2017-06-10T12:31:10Z</time>
      </trkpt>
      <trkpt lat="45.75464" lon="7.34026">
        <ele>800</ele>
        <time>2017-06-10T12:31:11Z</time>
      </trkpt>
      <trkpt lat="45.75458" lon="7.34029">
        <ele>799</ele>
        <time>2017-06-10T12:31:12Z</time>
      </trkpt>
      <trkpt lat="45.7545" lon="7.34033">
        <ele>799</ele>
        <time>2017-06-10T12:31:14Z</time>
      </trkpt>
      <trkpt lat="45.75449" lon="7.34035">
        <ele>799</ele>
        <time>2017-06-10T12:31:15Z</time>
      </trkpt>
      <trkpt lat="45.7545" lon="7.34049">
        <ele>798</ele>
        <time>2017-06-10T12:31:18Z</time>
      </trkpt>
      <trkpt lat="45.7545" lon="7.34061">
        <ele>798</ele>
        <time>2017-06-10T12:31:20Z</time>
      </trkpt>
      <trkpt lat="45.75448" lon="7.34077">
        <ele>797</ele>
        <time>2017-06-10T12:31:22Z</time>
      </trkpt>
      <trkpt lat="45.75443" lon="7.34109">
        <ele>794</ele>
        <time>2017-06-10T12:31:26Z</time>
      </trkpt>
      <trkpt lat="45.75445" lon="7.34136">
        <ele>794</ele>
        <time>2017-06-10T12:31:29Z</time>
      </trkpt>
      <trkpt lat="45.75447" lon="7.34165">
        <ele>793</ele>
        <time>2017-06-10T12:31:32Z</time>
      </trkpt>
      <trkpt lat="45.75441" lon="7.3418">
        <ele>791</ele>
        <time>2017-06-10T12:31:34Z</time>
      </trkpt>
      <trkpt lat="45.75428" lon="7.34188">
        <ele>789</ele>
        <time>2017-06-10T12:31:36Z</time>
      </trkpt>
      <trkpt lat="45.75413" lon="7.34195">
        <ele>780</ele>
        <time>2017-06-10T12:31:38Z</time>
      </trkpt>
    </trkseg>
  </trk>
</gpx>